Time;durP1;ratioP1;P1;durP2;ratioP2;P2;SDS_P1;SDS_P2;PMS_P1;PMS_P2;Temp;Humidity;BMP_temperature;BMP_pressure;BME280_temperature;BME280_humidity;BME280_pressure;Samples;Min_cycle;Max_cycle;Signal;HPM_P1;HPM_P2
2021/07/29 00:01:47;;;;;;;8.20;5.10;;;17.10;99.90;;;;;;5021965;28;20500;-78
2021/07/29 00:07:35;;;;;;;15.23;5.30;;;17.00;99.90;;;;;;5013218;28;20489;-78
2021/07/29 00:10:47;;;;;;;14.33;5.70;;;17.00;99.90;;;;;;5028684;28;20964;-78
2021/07/29 00:13:24;;;;;;;12.90;4.90;;;17.00;99.90;;;;;;5015959;28;21394;-79
2021/07/29 00:19:41;;;;;;;10.00;4.87;;;17.00;99.90;;;;;;5018582;28;20920;-78
2021/07/29 00:22:18;;;;;;;7.80;4.50;;;17.00;99.90;;;;;;5018238;28;20494;-78
2021/07/29 00:25:17;;;;;;;7.50;4.30;;;17.00;99.90;;;;;;5026442;28;20411;-78
2021/07/29 00:27:44;;;;;;;12.07;4.90;;;17.00;99.90;;;;;;5022007;28;20427;-78
2021/07/29 00:30:20;;;;;;;16.50;4.97;;;17.00;99.90;;;;;;5025224;28;20429;-78
2021/07/29 00:32:50;;;;;;;12.70;5.40;;;17.00;99.90;;;;;;5022298;28;20428;-78
2021/07/29 00:38:48;;;;;;;8.93;4.27;;;17.20;99.90;;;;;;5033208;28;20446;-79
2021/07/29 00:41:18;;;;;;;5.80;4.50;;;17.10;99.90;;;;;;5023842;28;20387;-78
2021/07/29 00:43:44;;;;;;;5.50;4.33;;;17.20;99.90;;;;;;5036135;28;20450;-79
2021/07/29 00:46:18;;;;;;;5.87;4.20;;;17.20;99.90;;;;;;5024719;28;20416;-79
2021/07/29 00:48:48;;;;;;;13.60;4.40;;;17.20;99.90;;;;;;5017140;28;20393;-77
2021/07/29 00:51:25;;;;;;;5.47;3.70;;;17.20;99.90;;;;;;5026633;28;21012;-77
2021/07/29 00:54:11;;;;;;;7.13;4.00;;;17.20;99.90;;;;;;5016582;28;20397;-77
2021/07/29 00:56:45;;;;;;;4.13;3.73;;;;;;;;;;5016729;28;20765;-77
2021/07/29 00:59:18;;;;;;;4.17;3.67;;;17.30;99.90;;;;;;5016576;28;20424;-77
2021/07/29 01:02:18;;;;;;;4.73;3.53;;;17.30;99.90;;;;;;5030954;28;20419;-77
2021/07/29 01:08:18;;;;;;;5.90;4.30;;;17.40;99.90;;;;;;5035831;28;20431;-78
2021/07/29 01:10:48;;;;;;;4.57;3.10;;;17.40;99.90;;;;;;5036024;28;20439;-79
2021/07/29 01:13:47;;;;;;;4.20;3.60;;;17.40;99.90;;;;;;5016557;28;20392;-78
2021/07/29 01:16:47;;;;;;;13.70;4.30;;;17.50;99.90;;;;;;5016262;28;20401;-78
2021/07/29 01:19:47;;;;;;;4.17;3.77;;;17.50;99.90;;;;;;5030705;28;20462;-78
2021/07/29 01:22:18;;;;;;;7.50;3.90;;;17.50;99.90;;;;;;5035738;28;20408;-78
2021/07/29 01:24:48;;;;;;;5.80;3.83;;;17.50;99.90;;;;;;5035603;28;20928;-79
2021/07/29 01:27:18;;;;;;;4.87;3.77;;;17.50;99.90;;;;;;5031600;28;20561;-78
2021/07/29 01:30:17;;;;;;;4.20;3.57;;;17.50;99.90;;;;;;5015606;28;20456;-78
2021/07/29 01:33:05;;;;;;;3.93;3.40;;;17.60;99.90;;;;;;5029479;28;20399;-78
2021/07/29 01:35:31;;;;;;;10.97;4.00;;;17.60;99.90;;;;;;5019105;28;20409;-78
2021/07/29 01:38:17;;;;;;;6.53;3.80;;;17.60;99.90;;;;;;5035790;28;20506;-78
2021/07/29 01:40:48;;;;;;;10.47;3.70;;;17.60;99.90;;;;;;5035625;28;20193;-78
2021/07/29 01:43:18;;;;;;;5.33;3.70;;;17.60;99.90;;;;;;5035073;28;20872;-78
2021/07/29 01:45:54;;;;;;;4.10;3.70;;;17.60;99.90;;;;;;5035358;28;20367;-78
2021/07/29 01:52:11;;;;;;;17.43;3.87;;;17.60;99.90;;;;;;5030715;28;20448;-77
2021/07/29 01:54:42;;;;;;;4.73;3.57;;;17.60;99.90;;;;;;5015997;28;20413;-77
2021/07/29 01:57:19;;;;;;;11.00;4.17;;;17.50;99.90;;;;;;5015445;28;20396;-77
2021/07/29 01:59:48;;;;;;;16.33;3.97;;;17.50;99.90;;;;;;5015465;28;20446;-77
2021/07/29 02:02:18;;;;;;;5.97;3.80;;;17.50;99.90;;;;;;5021550;28;20444;-77
2021/07/29 02:05:11;;;;;;;3.77;3.43;;;17.60;99.90;;;;;;5030378;28;20918;-77
2021/07/29 02:07:48;;;;;;;12.63;3.93;;;17.50;99.90;;;;;;5032843;28;20412;-77
2021/07/29 02:10:18;;;;;;;7.97;4.20;;;17.50;99.90;;;;;;5019974;28;20787;-77
2021/07/29 02:12:49;;;;;;;6.30;4.23;;;17.50;99.90;;;;;;5030199;28;20398;-77
2021/07/29 02:15:18;;;;;;;5.00;3.60;;;17.50;99.90;;;;;;5026393;28;20490;-77
2021/07/29 02:17:48;;;;;;;12.00;4.77;;;17.50;99.90;;;;;;5019504;28;20474;-77
2021/07/29 02:20:47;;;;;;;5.13;4.13;;;17.50;99.90;;;;;;5022760;28;20477;-78
2021/07/29 02:23:18;;;;;;;4.87;3.97;;;17.50;99.90;;;;;;5014885;28;20402;-78
2021/07/29 02:25:48;;;;;;;5.80;3.70;;;17.50;99.90;;;;;;5014837;28;20404;-78
2021/07/29 02:28:18;;;;;;;12.00;4.97;;;17.50;99.90;;;;;;5019339;28;20512;-78
2021/07/29 02:30:48;;;;;;;5.87;3.60;;;17.50;99.90;;;;;;5029256;28;20478;-78
2021/07/29 02:33:18;;;;;;;8.20;3.70;;;17.50;99.90;;;;;;5016358;28;20425;-78
2021/07/29 02:35:49;;;;;;;7.00;3.97;;;17.50;99.90;;;;;;5023450;28;20959;-78
2021/07/29 02:38:15;;;;;;;5.30;4.07;;;17.50;99.90;;;;;;5032962;28;20841;-78
2021/07/29 02:40:48;;;;;;;6.37;3.87;;;17.50;99.90;;;;;;5015359;28;20430;-78
2021/07/29 02:43:18;;;;;;;6.40;3.77;;;17.50;99.90;;;;;;5013521;28;20397;-80
2021/07/29 02:45:48;;;;;;;7.23;4.77;;;17.50;99.90;;;;;;5014380;28;20910;-78
2021/07/29 02:51:36;;;;;;;6.00;3.67;;;17.40;99.90;;;;;;5014571;28;20413;-77
2021/07/29 02:54:01;;;;;;;7.87;4.33;;;17.50;99.90;;;;;;5014514;28;20398;-77
2021/07/29 02:56:30;;;;;;;6.47;3.87;;;17.50;99.90;;;;;;5018534;28;20372;-77
2021/07/29 02:59:17;;;;;;;10.93;4.00;;;17.50;99.90;;;;;;5032875;28;20706;-77
2021/07/29 03:01:48;;;;;;;4.93;3.83;;;17.50;99.90;;;;;;5034213;28;20431;-77
2021/07/29 03:04:20;;;;;;;7.37;4.43;;;17.50;99.90;;;;;;5034188;28;20851;-76
2021/07/29 03:07:17;;;;;;;6.40;3.87;;;17.50;99.90;;;;;;5027879;28;20380;-78
2021/07/29 03:09:48;;;;;;;5.10;3.77;;;17.40;99.90;;;;;;5012764;28;20849;-78
2021/07/29 03:12:18;;;;;;;4.73;4.00;;;17.40;99.90;;;;;;5017197;28;20940;-78
2021/07/29 03:14:46;;;;;;;9.63;3.97;;;17.20;99.90;;;;;;5014189;28;20364;-78
2021/07/29 03:17:18;;;;;;;7.10;4.10;;;17.20;99.90;;;;;;5024860;28;20408;-78
2021/07/29 03:19:48;;;;;;;11.93;4.17;;;17.10;99.90;;;;;;5026909;28;20922;-78
2021/07/29 03:22:13;;;;;;;7.73;4.00;;;17.00;99.90;;;;;;5024843;28;20446;-77
2021/07/29 03:24:39;;;;;;;6.80;3.93;;;17.00;99.90;;;;;;5033011;28;20897;-77
2021/07/29 03:27:06;;;;;;;6.63;4.17;;;16.90;99.90;;;;;;5028900;28;20177;-77
2021/07/29 03:29:32;;;;;;;4.87;4.07;;;16.80;99.90;;;;;;5015751;28;20216;-77
2021/07/29 03:31:57;;;;;;;13.10;4.50;;;16.70;99.90;;;;;;5020593;28;20417;-77
2021/07/29 03:34:36;;;;;;;7.67;4.50;;;16.70;99.90;;;;;;5033637;28;20181;-76
2021/07/29 03:37:06;;;;;;;5.60;4.40;;;16.60;99.90;;;;;;5033841;28;20230;-77
2021/07/29 03:40:17;;;;;;;9.20;4.10;;;16.50;99.90;;;;;;5032206;28;20744;-76
2021/07/29 03:43:23;;;;;;;7.00;4.30;;;16.50;99.90;;;;;;5033250;28;20411;-77
2021/07/29 03:46:06;;;;;;;6.97;4.20;;;16.40;99.90;;;;;;5033543;28;20444;-77
2021/07/29 03:48:36;;;;;;;9.20;4.63;;;16.40;99.90;;;;;;5017139;28;20435;-77
2021/07/29 03:51:02;;;;;;;7.40;4.43;;;16.30;99.90;;;;;;5014466;28;20904;-77
2021/07/29 03:53:27;;;;;;;6.50;4.40;;;16.20;99.90;;;;;;5029693;28;20423;-77
2021/07/29 03:55:54;;;;;;;4.30;3.90;;;;;;;;;;5037593;28;20620;-77
2021/07/29 04:01:42;;;;;;;8.17;4.40;;;16.10;99.90;;;;;;5017682;28;20425;-77
2021/07/29 04:10:52;;;;;;;9.87;4.30;;;16.10;99.90;;;;;;5018309;28;20935;-77
2021/07/29 04:16:39;;;;;;;5.80;4.17;;;16.20;99.90;;;;;;5017262;28;20211;-78
2021/07/29 04:25:49;;;;;;;8.60;5.20;;;16.30;99.90;;;;;;5037011;28;20374;-81
2021/07/29 04:28:18;;;;;;;7.10;4.53;;;16.40;99.90;;;;;;5030255;28;20415;-77
2021/07/29 04:34:12;;;;;;;10.57;4.07;;;16.60;99.90;;;;;;5034165;28;21065;-77
2021/07/29 04:40:12;;;;;;;5.03;3.70;;;16.60;99.90;;;;;;5036543;28;20353;-78
2021/07/29 04:43:11;;;;;;;4.20;3.50;;;16.70;99.90;;;;;;5036345;28;20418;-78
2021/07/29 04:46:17;;;;;;;4.87;3.80;;;16.80;99.90;;;;;;5036306;28;20387;-78
2021/07/29 04:52:05;;;;;;;15.57;4.10;;;16.90;99.90;;;;;;5034592;28;20506;-78
2021/07/29 04:54:42;;;;;;;8.80;3.70;;;16.90;99.90;;;;;;5036050;28;20446;-77
2021/07/29 04:57:18;;;;;;;3.93;3.53;;;17.00;99.90;;;;;;5026933;28;20661;-77
2021/07/29 05:00:11;;;;;;;7.30;3.37;;;17.10;99.90;;;;;;5016500;28;20747;-77
2021/07/29 05:02:52;;;;;;;5.60;4.20;;;17.10;99.90;;;;;;5016942;28;20399;-78
2021/07/29 05:05:18;;;;;;;8.23;4.00;;;17.20;99.90;;;;;;5025392;28;20422;-77
2021/07/29 05:08:05;;;;;;;5.10;3.60;;;17.20;99.90;;;;;;5026441;28;20409;-77
2021/07/29 05:14:35;;;;;;;6.33;3.70;;;17.40;99.90;;;;;;5028825;28;20400;-77
2021/07/29 05:17:35;;;;;;;6.60;3.87;;;17.40;99.90;;;;;;5020144;28;20453;-77
2021/07/29 05:20:53;;;;;;;4.50;3.27;;;17.40;99.90;;;;;;5016214;28;20372;-77
2021/07/29 05:23:48;;;;;;;5.37;2.93;;;17.60;99.90;;;;;;5023358;28;20419;-77
2021/07/29 05:26:17;;;;;;;7.60;3.63;;;17.60;99.90;;;;;;5029081;28;20430;-78
2021/07/29 05:32:29;;;;;;;8.57;3.63;;;17.70;99.90;;;;;;5021902;28;20439;-78
2021/07/29 05:34:55;;;;;;;10.20;3.63;;;17.80;99.90;;;;;;5034724;28;20430;-77
2021/07/29 05:41:23;;;;;;;6.40;3.70;;;17.80;99.90;;;;;;5028635;28;20185;-78
2021/07/29 05:47:29;;;;;;;4.73;3.27;;;18.00;99.90;;;;;;5034890;28;20783;-77
2021/07/29 05:50:41;;;;;;;4.90;3.47;;;18.10;99.90;;;;;;5034949;28;20423;-78
2021/07/29 05:53:08;;;;;;;22.70;4.23;;;;;;;;;;5035569;28;20385;-77
2021/07/29 05:55:51;;;;;;;5.47;3.50;;;;;;;;;;5027565;28;20420;-78
2021/07/29 05:58:18;;;;;;;7.97;3.53;;;;;;;;;;5034365;28;20943;-78
2021/07/29 06:00:54;;;;;;;6.50;3.33;;;18.50;99.90;;;;;;5035257;28;20428;-77
2021/07/29 06:03:20;;;;;;;7.33;2.97;;;18.50;99.90;;;;;;5023940;28;20387;-77
2021/07/29 06:06:18;;;;;;;4.50;3.20;;;18.70;99.90;;;;;;5035146;28;20815;-77
2021/07/29 06:09:00;;;;;;;3.53;3.23;;;18.90;99.90;;;;;;5035237;28;20159;-77
2021/07/29 06:11:53;;;;;;;7.73;3.33;;;18.90;99.90;;;;;;5025233;28;20462;-77
2021/07/29 06:14:36;;;;;;;9.17;3.47;;;19.20;99.90;;;;;;5034862;28;20390;-77
2021/07/29 06:17:06;;;;;;;9.97;3.43;;;19.30;99.90;;;;;;5034986;28;20397;-77
2021/07/29 06:19:39;;;;;;;4.70;3.30;;;19.30;99.90;;;;;;5034002;28;20949;-77
2021/07/29 06:22:53;;;;;;;3.30;2.80;;;19.40;99.90;;;;;;5035019;28;20429;-77
2021/07/29 06:25:30;;;;;;;4.77;3.50;;;19.40;99.90;;;;;;5014645;28;20394;-77
2021/07/29 06:28:18;;;;;;;6.97;3.83;;;19.50;99.90;;;;;;5031457;28;20897;-78
2021/07/29 06:34:36;;;;;;;6.03;3.30;;;19.40;99.90;;;;;;5014155;28;20429;-77
2021/07/29 06:40:53;;;;;;;4.37;3.00;;;19.10;99.90;;;;;;5033434;28;20426;-79
2021/07/29 06:43:19;;;;;;;5.07;3.20;;;18.90;99.90;;;;;;5022184;28;20881;-77
2021/07/29 06:46:23;;;;;;;6.53;3.40;;;18.90;99.90;;;;;;5029756;28;20530;-77
2021/07/29 06:49:17;;;;;;;6.30;3.80;;;18.80;99.90;;;;;;5031164;28;20220;-78
2021/07/29 06:52:03;;;;;;;6.13;3.70;;;18.90;99.90;;;;;;5031858;28;20418;-77
2021/07/29 06:54:29;;;;;;;5.90;3.07;;;18.90;99.90;;;;;;5022467;28;20417;-78
2021/07/29 07:01:06;;;;;;;9.80;3.33;;;19.10;99.90;;;;;;5033799;28;20189;-78
2021/07/29 07:04:11;;;;;;;6.00;3.30;;;19.20;99.90;;;;;;5032888;28;20423;-78
2021/07/29 07:06:42;;;;;;;5.57;3.07;;;19.20;99.90;;;;;;5028448;28;20784;-77
2021/07/29 07:12:42;;;;;;;4.27;2.77;;;19.30;99.90;;;;;;5033945;28;20422;-77
2021/07/29 07:15:08;;;;;;;6.83;2.60;;;19.50;99.90;;;;;;5027174;28;20481;-77
2021/07/29 07:17:36;;;;;;;4.87;3.20;;;19.50;99.90;;;;;;5014357;28;20784;-76
2021/07/29 07:20:02;;;;;;;3.87;2.70;;;19.60;99.90;;;;;;5014361;28;20405;-77
2021/07/29 07:22:36;;;;;;;6.73;3.17;;;19.80;99.90;;;;;;5025014;28;20418;-77
2021/07/29 07:25:02;;;;;;;6.87;3.13;;;20.00;99.90;;;;;;5032747;28;20418;-77
2021/07/29 07:27:42;;;;;;;7.60;3.10;;;20.10;99.90;;;;;;5013912;28;20733;-76
2021/07/29 07:30:08;;;;;;;6.23;3.17;;;20.30;99.90;;;;;;5013863;28;20506;-76
2021/07/29 07:32:53;;;;;;;4.00;2.90;;;20.60;99.90;;;;;;5032956;28;20569;-76
2021/07/29 07:35:19;;;;;;;6.10;3.07;;;20.80;99.90;;;;;;5031869;28;20443;-77
2021/07/29 07:41:08;;;;;;;5.60;2.90;;;21.00;99.90;;;;;;5033480;28;20193;-78
2021/07/29 07:43:48;;;;;;;4.73;3.40;;;21.30;99.90;;;;;;5032585;28;20406;-78
2021/07/29 07:49:38;;;;;;;3.73;2.83;;;21.60;99.90;;;;;;5033264;28;20418;-78
2021/07/29 07:52:12;;;;;;;4.73;3.00;;;22.00;99.90;;;;;;5033309;28;20399;-78
2021/07/29 07:54:42;;;;;;;18.83;3.03;;;22.10;99.90;;;;;;5034245;28;20394;-76
2021/07/29 07:57:24;;;;;;;3.00;2.53;;;22.20;99.90;;;;;;5031991;28;20428;-76
2021/07/29 08:00:00;;;;;;;5.43;3.03;;;22.40;99.90;;;;;;5033385;28;20417;-76
2021/07/29 08:02:26;;;;;;;4.90;2.87;;;22.40;99.90;;;;;;5031704;28;20403;-76
2021/07/29 08:05:29;;;;;;;3.10;2.47;;;22.50;99.90;;;;;;5033474;28;20450;-76
2021/07/29 08:11:17;;;;;;;3.90;2.90;;;21.90;99.90;;;;;;5032830;28;20462;-78
2021/07/29 08:17:12;;;;;;;4.93;3.40;;;21.60;99.90;;;;;;5025935;28;20282;-78
2021/07/29 08:22:59;;;;;;;12.30;2.37;;;21.50;99.90;;;;;;5028567;28;20420;-78
2021/07/29 08:28:47;;;;;;;5.33;2.53;;;21.50;99.90;;;;;;5024826;28;20177;-78
2021/07/29 08:35:06;;;;;;;6.10;2.70;;;21.50;99.90;;;;;;5029940;28;20190;-78
2021/07/29 08:37:50;;;;;;;12.33;2.83;;;21.70;99.90;;;;;;5020141;28;20480;-79
2021/07/29 08:40:36;;;;;;;3.27;1.93;;;21.80;99.90;;;;;;5026108;28;20423;-76
2021/07/29 08:43:18;;;;;;;5.20;2.30;;;22.10;99.90;;;;;;5033199;28;20414;-77
2021/07/29 08:45:54;;;;;;;5.20;2.20;;;22.20;99.90;;;;;;5034376;28;20418;-77
2021/07/29 08:48:26;;;;;;;4.43;2.03;;;22.30;99.90;;;;;;5036696;28;20401;-76
2021/07/29 08:51:24;;;;;;;3.90;2.30;;;22.30;99.90;;;;;;5035810;28;20512;-75
2021/07/29 08:54:13;;;;;;;1.90;1.80;;;22.10;99.90;;;;;;5028657;28;20412;-77
2021/07/29 08:56:54;;;;;;;45.43;2.37;;;22.20;99.90;;;;;;5029867;28;20516;-76
2021/07/29 08:59:30;;;;;;;2.73;1.70;;;22.20;99.90;;;;;;5020293;28;20744;-76
2021/07/29 09:02:25;;;;;;;4.13;2.10;;;22.20;99.90;;;;;;5016669;28;20392;-77
2021/07/29 09:05:06;;;;;;;3.10;2.07;;;22.50;99.90;;;;;;5016502;28;20486;-76
2021/07/29 09:08:02;;;;;;;3.37;1.87;;;22.50;99.90;;;;;;5016967;28;20394;-76
2021/07/29 09:14:13;;;;;;;12.13;2.40;;;22.90;99.90;;;;;;5016041;28;20392;-78
2021/07/29 09:17:29;;;;;;;7.87;2.50;;;22.90;99.90;;;;;;5016299;28;20756;-79
2021/07/29 09:23:21;;;;;;;3.67;1.73;;;23.00;99.90;;;;;;5016005;28;20735;-77
2021/07/29 09:26:08;;;;;;;46.57;3.97;;;23.10;99.90;;;;;;5016260;28;20825;-76
2021/07/29 09:28:39;;;;;;;4.93;1.67;;;23.20;99.90;;;;;;5022818;28;20922;-76
2021/07/29 09:31:24;;;;;;;3.37;2.20;;;23.20;99.90;;;;;;5032730;28;20457;-76
2021/07/29 09:34:00;;;;;;;3.10;2.23;;;23.00;99.90;;;;;;5034549;28;20498;-76
2021/07/29 09:36:34;;;;;;;2.23;1.80;;;22.80;99.90;;;;;;5028573;28;20507;-75
2021/07/29 09:39:29;;;;;;;3.90;2.10;;;22.80;99.90;;;;;;5017164;28;20433;-79
2021/07/29 09:42:26;;;;;;;10.43;1.70;;;23.00;99.90;;;;;;5015558;28;20392;-80
2021/07/29 09:45:30;;;;;;;3.03;1.50;;;23.00;99.90;;;;;;4944920;29;20447;-78
2021/07/29 09:47:57;;;;;;;3.03;1.90;;;23.00;99.90;;;;;;4940701;29;20421;-74
2021/07/29 09:50:23;;;;;;;2.20;1.60;;;23.20;99.90;;;;;;4954986;29;20450;-80
2021/07/29 09:56:12;;;;;;;5.30;1.53;;;23.60;99.90;;;;;;4944852;29;20419;-75
2021/07/29 09:58:40;;;;;;;1.87;1.77;;;24.10;99.90;;;;;;4954146;29;20437;-75
2021/07/29 10:01:07;;;;;;;9.17;2.40;;;24.10;99.90;;;;;;4954178;29;20432;-75
2021/07/29 10:03:34;;;;;;;2.50;1.70;;;24.10;99.90;;;;;;4954846;29;20451;-75
2021/07/29 10:06:12;;;;;;;2.50;1.43;;;24.00;99.90;;;;;;4953651;29;20457;-75
2021/07/29 10:08:41;;;;;;;2.80;1.47;;;23.90;94.80;;;;;;4945179;29;20433;-75
2021/07/29 10:11:15;;;;;;;2.17;1.53;;;23.90;95.90;;;;;;4953665;29;20836;-80
2021/07/29 10:14:29;;;;;;;1.83;1.73;;;23.50;95.00;;;;;;4954017;29;20421;-80
2021/07/29 10:17:00;;;;;;;2.97;1.93;;;23.50;96.20;;;;;;4954356;29;20451;-79
2021/07/29 10:22:49;;;;;;;4.90;1.47;;;23.10;97.40;;;;;;5026546;28;20461;-79
2021/07/29 10:26:06;;;;;;;6.30;2.03;;;23.00;97.80;;;;;;5022367;28;20831;-79
2021/07/29 10:31:59;;;;;;;3.73;1.77;;;23.80;95.50;;;;;;5014622;28;20399;-80
2021/07/29 10:37:46;;;;;;;4.20;1.80;;;24.10;94.40;;;;;;5028757;28;20411;-80
2021/07/29 10:43:33;;;;;;;2.43;1.70;;;24.60;90.70;;;;;;5033653;28;20241;-80
2021/07/29 10:46:02;;;;;;;2.87;1.67;;;24.70;91.20;;;;;;5031019;28;20414;-80
2021/07/29 10:49:14;;;;;;;11.77;2.13;;;24.90;92.40;;;;;;5017419;28;20578;-80
2021/07/29 10:52:17;;;;;;;4.50;2.10;;;25.00;92.30;;;;;;5023800;28;20519;-80
2021/07/29 10:54:45;;;;;;;3.90;1.93;;;24.80;90.20;;;;;;5030767;28;20507;-74
2021/07/29 10:57:13;;;;;;;6.40;2.10;;;24.60;82.90;;;;;;5031437;28;20430;-74
2021/07/29 10:59:39;;;;;;;11.60;2.00;;;24.50;84.60;;;;;;5024099;28;20413;-75
2021/07/29 11:02:09;;;;;;;4.77;1.63;;;24.50;85.10;;;;;;5024612;28;20426;-75
2021/07/29 11:04:55;;;;;;;4.07;1.80;;;24.30;83.30;;;;;;5031423;28;20500;-75
2021/07/29 11:07:30;;;;;;;1.93;1.80;;;24.30;89.30;;;;;;5033786;28;20641;-75
2021/07/29 11:13:19;;;;;;;2.20;1.90;;;24.10;85.70;;;;;;5027825;28;20419;-80
2021/07/29 11:15:48;;;;;;;4.80;2.10;;;24.10;91.30;;;;;;5032758;28;20884;-80
2021/07/29 11:22:29;;;;;;;2.63;1.83;;;24.20;91.50;;;;;;5033653;28;21009;-79
2021/07/29 11:25:06;;;;;;;15.10;2.40;;;24.10;89.10;;;;;;5033440;28;20416;-75
2021/07/29 11:27:31;;;;;;;1.80;1.70;;;24.30;80.70;;;;;;5025765;28;20779;-75
2021/07/29 11:29:59;;;;;;;1.80;1.70;;;24.30;78.80;;;;;;5013893;28;20568;-75
2021/07/29 11:32:43;;;;;;;3.33;1.50;;;24.20;82.60;;;;;;5029979;28;20599;-74
2021/07/29 11:35:14;;;;;;;3.90;1.80;;;24.10;79.90;;;;;;5018894;28;21079;-75
2021/07/29 11:37:47;;;;;;;2.87;1.50;;;23.90;78.40;;;;;;5024503;28;20819;-75
2021/07/29 11:40:53;;;;;;;1.40;1.30;;;24.00;82.20;;;;;;5028944;28;20501;-79
2021/07/29 11:43:50;;;;;;;2.30;1.47;;;24.50;80.50;;;;;;5014017;28;20398;-80
2021/07/29 11:46:30;;;;;;;2.47;1.33;;;24.60;74.40;;;;;;5013535;28;20422;-79
2021/07/29 11:49:07;;;;;;;2.37;1.40;;;24.90;77.20;;;;;;5027641;28;20434;-80
2021/07/29 11:55:15;;;;;;;2.13;1.40;;;25.10;75.30;;;;;;5013683;28;20403;-79
2021/07/29 12:01:13;;;;;;;2.80;1.30;;;25.30;75.10;;;;;;5033204;28;20391;-80
2021/07/29 12:03:48;;;;;;;1.50;1.40;;;25.40;69.30;;;;;;5031824;28;20900;-80
2021/07/29 12:06:36;;;;;;;1.83;1.70;;;25.40;71.90;;;;;;5013348;28;20490;-79
2021/07/29 12:09:24;;;;;;;5.43;1.70;;;25.50;73.50;;;;;;5013384;28;20403;-80
2021/07/29 12:11:52;;;;;;;2.73;1.70;;;25.80;67.30;;;;;;5022995;28;20462;-74
2021/07/29 12:14:17;;;;;;;2.63;1.40;;;25.80;68.80;;;;;;5033358;28;20482;-74
2021/07/29 12:16:45;;;;;;;9.20;1.30;;;25.60;66.20;;;;;;5030963;28;20420;-74
2021/07/29 12:19:13;;;;;;;2.07;1.80;;;25.30;64.40;;;;;;5020951;28;20166;-74
2021/07/29 12:21:38;;;;;;;1.90;1.80;;;25.10;63.20;;;;;;5027351;28;20444;-74
2021/07/29 12:24:04;;;;;;;2.27;1.40;;;24.90;66.30;;;;;;5032608;28;20508;-74
2021/07/29 12:26:30;;;;;;;1.97;1.50;;;24.60;70.90;;;;;;5033027;28;20185;-74
2021/07/29 12:28:56;;;;;;;2.03;1.90;;;24.40;69.60;;;;;;5025771;28;20434;-74
2021/07/29 12:31:26;;;;;;;5.30;1.53;;;24.30;71.80;;;;;;5017971;28;20766;-74
2021/07/29 12:34:05;;;;;;;7.90;1.67;;;24.40;70.50;;;;;;5035941;28;20202;-74
2021/07/29 12:36:45;;;;;;;3.73;1.67;;;24.50;74.10;;;;;;5036609;28;20453;-74
2021/07/29 12:39:16;;;;;;;7.40;1.67;;;24.20;69.20;;;;;;5028602;28;20418;-74
2021/07/29 12:41:45;;;;;;;1.93;1.80;;;24.20;71.90;;;;;;5036745;28;20431;-74
2021/07/29 12:44:18;;;;;;;11.00;1.77;;;24.30;75.30;;;;;;5021273;28;20434;-75
2021/07/29 12:46:45;;;;;;;1.63;1.53;;;24.40;74.60;;;;;;5031081;28;20838;-74
2021/07/29 12:49:13;;;;;;;2.90;1.50;;;24.60;72.40;;;;;;5036210;28;20422;-74
2021/07/29 12:51:40;;;;;;;2.53;1.50;;;24.70;70.00;;;;;;5034654;28;20802;-74
2021/07/29 12:54:14;;;;;;;2.23;1.67;;;24.70;65.40;;;;;;5036136;28;20767;-74
2021/07/29 13:00:07;;;;;;;1.67;1.53;;;25.10;73.30;;;;;;5035449;28;20516;-80
2021/07/29 13:02:42;;;;;;;1.67;1.57;;;25.20;71.60;;;;;;5036324;28;20834;-80
2021/07/29 13:08:32;;;;;;;3.50;1.70;;;25.10;63.20;;;;;;5016362;28;20372;-80
2021/07/29 13:14:20;;;;;;;1.40;1.30;;;24.70;64.40;;;;;;5035987;28;20429;-78
2021/07/29 13:23:30;;;;;;;3.63;1.67;;;25.00;67.20;;;;;;5026898;28;20396;-80
2021/07/29 13:29:18;;;;;;;4.77;2.17;;;25.30;63.80;;;;;;5019798;28;20503;-80
2021/07/29 13:32:03;;;;;;;1.87;1.67;;;25.30;64.50;;;;;;5031215;28;20465;-80
2021/07/29 13:35:00;;;;;;;1.90;1.47;;;25.20;63.90;;;;;;5028323;28;20449;-80
2021/07/29 13:37:30;;;;;;;1.47;1.37;;;25.20;64.40;;;;;;5026504;28;20475;-80
2021/07/29 13:43:17;;;;;;;2.87;1.70;;;25.00;66.50;;;;;;5031747;28;20405;-79
2021/07/29 13:46:29;;;;;;;3.70;1.93;;;25.00;71.10;;;;;;5021958;28;20435;-80
2021/07/29 13:49:06;;;;;;;2.23;1.83;;;25.20;67.80;;;;;;5015420;28;20230;-80
2021/07/29 13:52:00;;;;;;;4.17;1.77;;;25.30;70.30;;;;;;5015394;28;20828;-79
2021/07/29 14:04:31;;;;;;;2.30;1.50;;;25.10;68.40;;;;;;5015043;28;20432;-79
2021/07/29 14:10:19;;;;;;;1.73;1.43;;;25.10;68.80;;;;;;5017391;28;20470;-83
2021/07/29 14:19:38;;;;;;;3.30;1.40;;;25.50;68.50;;;;;;5015064;28;20383;-83
2021/07/29 14:25:29;;;;;;;1.60;1.50;;;25.50;70.10;;;;;;5029484;28;20485;-82
2021/07/29 14:28:08;;;;;;;1.67;1.57;;;25.40;69.20;;;;;;5013873;28;20434;-77
2021/07/29 14:30:37;;;;;;;2.50;1.70;;;25.50;71.10;;;;;;5018098;28;20447;-76
2021/07/29 14:33:05;;;;;;;2.87;1.43;;;25.60;67.90;;;;;;5028948;28;20840;-76
2021/07/29 14:35:31;;;;;;;2.50;1.57;;;25.60;72.10;;;;;;5018578;28;20472;-77
2021/07/29 14:37:57;;;;;;;1.60;1.50;;;25.60;64.30;;;;;;5015066;28;20460;-77
2021/07/29 14:40:24;;;;;;;2.20;1.70;;;25.60;66.60;;;;;;5027301;28;20644;-76
2021/07/29 14:49:34;;;;;;;2.57;1.43;;;25.50;67.30;;;;;;5031993;28;20401;-82
2021/07/29 16:12:50;;;;;;;3.47;1.00;;;38.70;9.90;;;;;;5017133;28;20411;-84
2021/07/29 16:15:48;;;;;;;2.80;1.00;;;38.70;11.40;;;;;;5024304;28;20768;-84
2021/07/29 16:18:36;;;;;;;3.00;1.13;;;39.20;10.20;;;;;;5036927;28;20402;-84
2021/07/29 16:24:30;;;;;;;1.00;1.00;;;39.20;7.00;;;;;;5036867;28;20406;-84
2021/07/29 16:27:02;;;;;;;1.47;1.10;;;38.60;5.80;;;;;;5030814;28;20483;-84
2021/07/29 16:29:30;;;;;;;1.10;1.00;;;38.00;6.90;;;;;;5017200;28;20385;-80
2021/07/29 16:31:56;;;;;;;2.40;1.23;;;37.80;6.70;;;;;;5024440;28;20960;-81
2021/07/29 16:34:21;;;;;;;4.97;1.40;;;37.70;8.50;;;;;;5035899;28;20430;-81
2021/07/29 16:37:12;;;;;;;1.27;1.20;;;37.30;9.70;;;;;;5036124;28;20177;-82
2021/07/29 16:39:40;;;;;;;2.97;1.27;;;35.60;10.80;;;;;;5036078;28;20244;-81
2021/07/29 16:42:06;;;;;;;2.17;1.40;;;34.80;13.40;;;;;;5035935;28;20387;-82
2021/07/29 16:44:36;;;;;;;6.07;1.50;;;32.80;17.00;;;;;;5034841;28;20571;-79
2021/07/29 16:47:36;;;;;;;2.63;1.70;;;32.80;19.80;;;;;;5029737;28;20434;-79
2021/07/29 16:53:23;;;;;;;2.47;1.43;;;32.40;21.40;;;;;;5036532;28;20747;-82
2021/07/29 16:59:24;;;;;;;2.83;1.40;;;34.40;15.10;;;;;;5016961;28;20680;-78
2021/07/29 17:02:41;;;;;;;1.77;1.30;;;34.60;15.20;;;;;;5015603;28;20419;-78
2021/07/29 17:05:18;;;;;;;1.40;1.30;;;34.90;12.90;;;;;;5016312;28;20392;-79
2021/07/29 17:08:30;;;;;;;3.10;1.10;;;35.90;9.40;;;;;;5023290;28;20771;-78
2021/07/29 17:10:55;;;;;;;1.20;1.10;;;36.00;9.20;;;;;;5016353;28;20455;-77
2021/07/29 17:13:24;;;;;;;8.97;1.57;;;36.20;6.30;;;;;;5016390;28;20401;-79
2021/07/29 17:19:12;;;;;;;1.47;1.30;;;36.50;6.20;;;;;;5024041;28;20410;-84
2021/07/29 17:25:00;;;;;;;2.50;1.40;;;33.30;11.40;;;;;;5016387;28;20868;-87
2021/07/29 17:30:54;;;;;;;4.83;1.40;;;30.90;18.90;;;;;;5016261;28;20216;-86
2021/07/29 17:36:42;;;;;;;2.10;1.60;;;29.50;22.70;;;;;;5017512;28;20482;-85
2021/07/29 17:42:29;;;;;;;7.67;1.67;;;27.70;30.50;;;;;;5015762;28;20550;-82
2021/07/29 17:44:55;;;;;;;14.23;2.00;;;27.20;33.30;;;;;;5026199;28;20420;-76
2021/07/29 17:47:24;;;;;;;2.50;1.77;;;26.80;36.40;;;;;;5016878;28;20172;-76
2021/07/29 17:50:00;;;;;;;1.63;1.50;;;26.80;39.20;;;;;;5015823;28;20173;-76
2021/07/29 17:52:26;;;;;;;2.97;1.80;;;26.10;40.60;;;;;;5015704;28;20411;-76
2021/07/29 17:55:01;;;;;;;2.07;1.70;;;26.00;42.60;;;;;;5015585;28;20769;-77
2021/07/29 17:57:42;;;;;;;2.50;2.07;;;25.30;40.10;;;;;;5031326;28;20174;-77
2021/07/29 18:00:19;;;;;;;1.80;1.70;;;25.10;40.00;;;;;;5015649;28;20835;-77
2021/07/29 18:02:44;;;;;;;1.50;1.40;;;24.60;39.60;;;;;;5021143;28;20434;-77
2021/07/29 18:05:12;;;;;;;3.53;1.70;;;24.40;47.00;;;;;;5015396;28;20413;-77
2021/07/29 18:07:42;;;;;;;3.00;1.60;;;24.20;50.10;;;;;;5025543;28;20239;-77
2021/07/29 18:10:08;;;;;;;2.63;1.80;;;24.10;48.80;;;;;;5033815;28;20487;-73
2021/07/29 18:12:36;;;;;;;2.23;1.60;;;23.80;52.00;;;;;;5025539;28;20861;-74
2021/07/29 18:15:04;;;;;;;1.83;1.60;;;23.70;56.80;;;;;;5019163;28;20924;-75
2021/07/29 18:17:30;;;;;;;2.50;1.60;;;23.50;57.00;;;;;;5033839;28;20413;-73
2021/07/29 18:19:57;;;;;;;4.07;1.60;;;23.50;59.00;;;;;;5034317;28;20749;-74
2021/07/29 18:22:23;;;;;;;4.90;1.90;;;23.20;62.20;;;;;;5019726;28;20464;-75
2021/07/29 18:24:49;;;;;;;2.97;1.80;;;23.20;64.10;;;;;;5034368;28;20420;-74
2021/07/29 18:27:15;;;;;;;3.87;2.00;;;23.10;71.30;;;;;;5021057;28;20904;-74
2021/07/29 18:29:41;;;;;;;4.63;1.80;;;22.80;67.50;;;;;;5015080;28;20464;-74
2021/07/29 18:35:49;;;;;;;2.60;1.90;;;22.60;79.90;;;;;;5034258;28;20234;-80
2021/07/29 18:38:42;;;;;;;8.90;1.97;;;22.40;84.60;;;;;;5031878;28;20434;-80
2021/07/29 18:41:30;;;;;;;4.27;1.60;;;22.30;86.20;;;;;;5026554;28;20509;-80
2021/07/29 18:50:42;;;;;;;4.23;1.90;;;21.60;91.80;;;;;;5013903;28;20467;-80